sensor_id;sensor_type;location;lat;lon;timestamp;P1;durP1;ratioP1;P2;durP2;ratioP2
25419;SDS011;13354;48.174;11.566;2023-06-04T00:00:24;6.15;;;3.67;;
25419;SDS011;13354;48.174;11.566;2023-06-04T00:02:50;7.45;;;3.58;;
25419;SDS011;13354;48.174;11.566;2023-06-04T00:05:15;7.18;;;3.83;;
25419;SDS011;13354;48.174;11.566;2023-06-04T00:07:41;8.13;;;4.05;;
25419;SDS011;13354;48.174;11.566;2023-06-04T00:10:06;6.35;;;3.70;;
25419;SDS011;13354;48.174;11.566;2023-06-04T00:12:32;4.75;;;3.20;;
25419;SDS011;13354;48.174;11.566;2023-06-04T00:14:57;5.78;;;3.58;;
25419;SDS011;13354;48.174;11.566;2023-06-04T00:17:22;7.97;;;4.03;;
25419;SDS011;13354;48.174;11.566;2023-06-04T00:19:48;10.32;;;4.32;;
25419;SDS011;13354;48.174;11.566;2023-06-04T00:22:13;7.05;;;3.45;;
25419;SDS011;13354;48.174;11.566;2023-06-04T00:24:38;5.72;;;3.80;;
25419;SDS011;13354;48.174;11.566;2023-06-04T00:27:08;5.95;;;3.60;;
25419;SDS011;13354;48.174;11.566;2023-06-04T00:29:33;6.10;;;3.58;;
25419;SDS011;13354;48.174;11.566;2023-06-04T00:31:59;6.97;;;3.33;;
25419;SDS011;13354;48.174;11.566;2023-06-04T00:34:24;9.35;;;4.00;;
25419;SDS011;13354;48.174;11.566;2023-06-04T00:36:50;12.13;;;3.40;;
25419;SDS011;13354;48.174;11.566;2023-06-04T00:39:15;7.00;;;3.65;;
25419;SDS011;13354;48.174;11.566;2023-06-04T00:41:40;7.57;;;3.40;;
25419;SDS011;13354;48.174;11.566;2023-06-04T00:44:05;9.85;;;3.70;;
25419;SDS011;13354;48.174;11.566;2023-06-04T00:46:31;8.95;;;3.58;;
25419;SDS011;13354;48.174;11.566;2023-06-04T00:48:58;5.25;;;3.50;;
25419;SDS011;13354;48.174;11.566;2023-06-04T00:51:23;6.55;;;3.63;;
25419;SDS011;13354;48.174;11.566;2023-06-04T00:53:50;5.90;;;3.35;;
25419;SDS011;13354;48.174;11.566;2023-06-04T00:56:16;6.60;;;3.35;;
25419;SDS011;13354;48.174;11.566;2023-06-04T00:58:41;7.25;;;3.08;;
25419;SDS011;13354;48.174;11.566;2023-06-04T01:01:10;6.93;;;3.10;;
25419;SDS011;13354;48.174;11.566;2023-06-04T01:03:42;5.63;;;3.28;;
25419;SDS011;13354;48.174;11.566;2023-06-04T01:08:49;3.90;;;2.95;;
25419;SDS011;13354;48.174;11.566;2023-06-04T01:11:18;7.53;;;3.50;;
25419;SDS011;13354;48.174;11.566;2023-06-04T01:13:43;4.85;;;3.05;;
25419;SDS011;13354;48.174;11.566;2023-06-04T01:16:08;8.65;;;3.13;;
25419;SDS011;13354;48.174;11.566;2023-06-04T01:18:37;3.95;;;3.05;;
25419;SDS011;13354;48.174;11.566;2023-06-04T01:21:06;5.65;;;3.10;;
25419;SDS011;13354;48.174;11.566;2023-06-04T01:23:36;5.90;;;3.05;;
25419;SDS011;13354;48.174;11.566;2023-06-04T01:26:10;6.28;;;2.92;;
25419;SDS011;13354;48.174;11.566;2023-06-04T01:28:37;5.88;;;2.95;;
25419;SDS011;13354;48.174;11.566;2023-06-04T01:31:02;6.60;;;2.90;;
25419;SDS011;13354;48.174;11.566;2023-06-04T01:33:29;4.25;;;3.10;;
25419;SDS011;13354;48.174;11.566;2023-06-04T01:35:54;4.75;;;2.83;;
25419;SDS011;13354;48.174;11.566;2023-06-04T01:38:20;6.00;;;2.80;;
25419;SDS011;13354;48.174;11.566;2023-06-04T01:40:46;6.65;;;2.67;;
25419;SDS011;13354;48.174;11.566;2023-06-04T01:43:12;4.93;;;2.70;;
25419;SDS011;13354;48.174;11.566;2023-06-04T01:45:38;5.72;;;2.70;;
25419;SDS011;13354;48.174;11.566;2023-06-04T01:48:04;3.38;;;2.50;;
25419;SDS011;13354;48.174;11.566;2023-06-04T01:50:30;4.35;;;2.72;;
25419;SDS011;13354;48.174;11.566;2023-06-04T01:52:56;4.03;;;2.63;;
25419;SDS011;13354;48.174;11.566;2023-06-04T01:55:21;4.20;;;2.72;;
25419;SDS011;13354;48.174;11.566;2023-06-04T01:57:47;4.68;;;2.90;;
25419;SDS011;13354;48.174;11.566;2023-06-04T02:00:13;4.10;;;2.75;;
25419;SDS011;13354;48.174;11.566;2023-06-04T02:02:39;6.60;;;2.67;;
25419;SDS011;13354;48.174;11.566;2023-06-04T02:05:07;4.38;;;2.65;;
25419;SDS011;13354;48.174;11.566;2023-06-04T02:07:36;7.38;;;3.15;;
25419;SDS011;13354;48.174;11.566;2023-06-04T02:10:09;5.75;;;2.60;;
25419;SDS011;13354;48.174;11.566;2023-06-04T02:12:36;6.10;;;2.63;;
25419;SDS011;13354;48.174;11.566;2023-06-04T02:15:03;5.82;;;2.78;;
25419;SDS011;13354;48.174;11.566;2023-06-04T02:17:29;5.40;;;2.67;;
25419;SDS011;13354;48.174;11.566;2023-06-04T02:19:57;5.35;;;2.95;;
25419;SDS011;13354;48.174;11.566;2023-06-04T02:22:23;6.18;;;2.75;;
25419;SDS011;13354;48.174;11.566;2023-06-04T02:24:49;3.58;;;2.58;;
25419;SDS011;13354;48.174;11.566;2023-06-04T02:27:15;5.50;;;2.72;;
25419;SDS011;13354;48.174;11.566;2023-06-04T02:29:41;6.82;;;2.67;;
25419;SDS011;13354;48.174;11.566;2023-06-04T02:32:06;3.60;;;2.53;;
25419;SDS011;13354;48.174;11.566;2023-06-04T02:34:33;4.88;;;2.80;;
25419;SDS011;13354;48.174;11.566;2023-06-04T02:37:01;6.72;;;2.92;;
25419;SDS011;13354;48.174;11.566;2023-06-04T02:39:28;5.15;;;2.80;;
25419;SDS011;13354;48.174;11.566;2023-06-04T02:41:53;6.68;;;2.90;;
25419;SDS011;13354;48.174;11.566;2023-06-04T02:44:19;5.50;;;3.22;;
25419;SDS011;13354;48.174;11.566;2023-06-04T02:46:44;4.97;;;3.10;;
25419;SDS011;13354;48.174;11.566;2023-06-04T02:49:10;3.40;;;2.78;;
25419;SDS011;13354;48.174;11.566;2023-06-04T02:51:38;4.93;;;2.88;;
25419;SDS011;13354;48.174;11.566;2023-06-04T02:54:04;3.88;;;3.03;;
25419;SDS011;13354;48.174;11.566;2023-06-04T02:56:30;6.00;;;2.80;;
25419;SDS011;13354;48.174;11.566;2023-06-04T02:58:55;6.07;;;2.90;;
25419;SDS011;13354;48.174;11.566;2023-06-04T03:01:21;3.80;;;3.00;;
25419;SDS011;13354;48.174;11.566;2023-06-04T03:03:51;6.22;;;3.55;;
25419;SDS011;13354;48.174;11.566;2023-06-04T03:06:17;5.70;;;3.30;;
25419;SDS011;13354;48.174;11.566;2023-06-04T03:08:45;6.22;;;3.10;;
25419;SDS011;13354;48.174;11.566;2023-06-04T03:11:11;6.43;;;3.90;;
25419;SDS011;13354;48.174;11.566;2023-06-04T03:13:37;5.55;;;3.63;;
25419;SDS011;13354;48.174;11.566;2023-06-04T03:16:03;5.00;;;3.63;;
25419;SDS011;13354;48.174;11.566;2023-06-04T03:18:28;6.28;;;3.70;;
25419;SDS011;13354;48.174;11.566;2023-06-04T03:20:54;8.07;;;4.20;;
25419;SDS011;13354;48.174;11.566;2023-06-04T03:23:23;7.63;;;4.00;;
25419;SDS011;13354;48.174;11.566;2023-06-04T03:25:48;6.28;;;3.70;;
25419;SDS011;13354;48.174;11.566;2023-06-04T03:28:13;4.88;;;3.85;;
25419;SDS011;13354;48.174;11.566;2023-06-04T03:30:39;10.40;;;4.45;;
25419;SDS011;13354;48.174;11.566;2023-06-04T03:33:05;5.80;;;4.43;;
25419;SDS011;13354;48.174;11.566;2023-06-04T03:35:31;6.65;;;3.80;;
25419;SDS011;13354;48.174;11.566;2023-06-04T03:37:56;5.82;;;3.90;;
25419;SDS011;13354;48.174;11.566;2023-06-04T03:40:22;9.48;;;4.30;;
25419;SDS011;13354;48.174;11.566;2023-06-04T03:42:47;7.38;;;4.10;;
25419;SDS011;13354;48.174;11.566;2023-06-04T03:45:12;6.50;;;4.63;;
25419;SDS011;13354;48.174;11.566;2023-06-04T03:47:38;5.07;;;4.10;;
25419;SDS011;13354;48.174;11.566;2023-06-04T03:50:04;8.25;;;4.10;;
25419;SDS011;13354;48.174;11.566;2023-06-04T03:52:30;5.55;;;4.00;;
25419;SDS011;13354;48.174;11.566;2023-06-04T03:54:56;8.77;;;4.15;;
25419;SDS011;13354;48.174;11.566;2023-06-04T03:57:22;8.98;;;4.07;;
25419;SDS011;13354;48.174;11.566;2023-06-04T03:59:47;5.75;;;4.10;;
25419;SDS011;13354;48.174;11.566;2023-06-04T04:02:13;7.18;;;3.78;;
25419;SDS011;13354;48.174;11.566;2023-06-04T04:04:39;5.82;;;4.45;;
25419;SDS011;13354;48.174;11.566;2023-06-04T04:07:05;11.32;;;3.95;;
25419;SDS011;13354;48.174;11.566;2023-06-04T04:09:30;6.70;;;4.10;;
25419;SDS011;13354;48.174;11.566;2023-06-04T04:11:56;7.85;;;4.35;;
25419;SDS011;13354;48.174;11.566;2023-06-04T04:14:21;7.35;;;4.18;;
25419;SDS011;13354;48.174;11.566;2023-06-04T04:16:50;8.15;;;3.90;;
25419;SDS011;13354;48.174;11.566;2023-06-04T04:19:15;6.57;;;4.75;;
25419;SDS011;13354;48.174;11.566;2023-06-04T04:21:41;6.13;;;4.03;;
25419;SDS011;13354;48.174;11.566;2023-06-04T04:24:06;11.38;;;4.15;;
25419;SDS011;13354;48.174;11.566;2023-06-04T04:26:32;8.38;;;3.97;;
25419;SDS011;13354;48.174;11.566;2023-06-04T04:28:57;6.93;;;3.75;;
25419;SDS011;13354;48.174;11.566;2023-06-04T04:31:25;4.68;;;3.33;;
25419;SDS011;13354;48.174;11.566;2023-06-04T04:33:51;6.22;;;3.90;;
25419;SDS011;13354;48.174;11.566;2023-06-04T04:36:17;5.55;;;3.75;;
25419;SDS011;13354;48.174;11.566;2023-06-04T04:38:43;5.47;;;3.50;;
25419;SDS011;13354;48.174;11.566;2023-06-04T04:41:19;6.53;;;3.53;;
25419;SDS011;13354;48.174;11.566;2023-06-04T04:43:47;4.82;;;3.72;;
25419;SDS011;13354;48.174;11.566;2023-06-04T04:46:13;7.35;;;3.42;;
25419;SDS011;13354;48.174;11.566;2023-06-04T04:48:38;5.65;;;3.75;;
25419;SDS011;13354;48.174;11.566;2023-06-04T04:51:05;5.07;;;3.63;;
25419;SDS011;13354;48.174;11.566;2023-06-04T04:53:31;10.88;;;4.00;;
25419;SDS011;13354;48.174;11.566;2023-06-04T04:55:57;8.30;;;3.65;;
25419;SDS011;13354;48.174;11.566;2023-06-04T04:58:22;5.03;;;3.78;;
25419;SDS011;13354;48.174;11.566;2023-06-04T05:00:48;7.03;;;3.60;;
25419;SDS011;13354;48.174;11.566;2023-06-04T05:03:13;5.88;;;3.60;;
25419;SDS011;13354;48.174;11.566;2023-06-04T05:05:39;4.72;;;3.30;;
25419;SDS011;13354;48.174;11.566;2023-06-04T05:08:05;5.47;;;3.40;;
25419;SDS011;13354;48.174;11.566;2023-06-04T05:10:30;5.53;;;3.53;;
25419;SDS011;13354;48.174;11.566;2023-06-04T05:12:59;11.82;;;3.88;;
25419;SDS011;13354;48.174;11.566;2023-06-04T05:15:29;8.40;;;3.42;;
25419;SDS011;13354;48.174;11.566;2023-06-04T05:17:55;7.25;;;3.42;;
25419;SDS011;13354;48.174;11.566;2023-06-04T05:20:21;5.78;;;3.08;;
25419;SDS011;13354;48.174;11.566;2023-06-04T05:22:47;3.47;;;3.05;;
25419;SDS011;13354;48.174;11.566;2023-06-04T05:25:13;5.40;;;3.50;;
25419;SDS011;13354;48.174;11.566;2023-06-04T05:27:40;6.97;;;3.58;;
25419;SDS011;13354;48.174;11.566;2023-06-04T05:30:06;5.65;;;3.08;;
25419;SDS011;13354;48.174;11.566;2023-06-04T05:32:32;6.22;;;3.80;;
25419;SDS011;13354;48.174;11.566;2023-06-04T05:34:58;8.15;;;3.35;;
25419;SDS011;13354;48.174;11.566;2023-06-04T05:37:24;6.43;;;3.63;;
25419;SDS011;13354;48.174;11.566;2023-06-04T05:39:52;5.07;;;3.63;;
25419;SDS011;13354;48.174;11.566;2023-06-04T05:42:18;5.20;;;3.40;;
25419;SDS011;13354;48.174;11.566;2023-06-04T05:44:43;4.32;;;3.22;;
25419;SDS011;13354;48.174;11.566;2023-06-04T05:47:09;7.38;;;3.47;;
25419;SDS011;13354;48.174;11.566;2023-06-04T05:49:34;4.55;;;3.20;;
25419;SDS011;13354;48.174;11.566;2023-06-04T05:51:59;5.20;;;3.38;;
25419;SDS011;13354;48.174;11.566;2023-06-04T05:54:25;4.75;;;3.20;;
25419;SDS011;13354;48.174;11.566;2023-06-04T05:56:51;5.80;;;3.47;;
25419;SDS011;13354;48.174;11.566;2023-06-04T05:59:16;7.88;;;3.63;;
25419;SDS011;13354;48.174;11.566;2023-06-04T06:01:42;6.65;;;3.50;;
25419;SDS011;13354;48.174;11.566;2023-06-04T06:04:08;6.18;;;3.63;;
25419;SDS011;13354;48.174;11.566;2023-06-04T06:06:33;6.80;;;3.50;;
25419;SDS011;13354;48.174;11.566;2023-06-04T06:09:00;5.85;;;3.63;;
25419;SDS011;13354;48.174;11.566;2023-06-04T06:11:25;8.73;;;3.55;;
25419;SDS011;13354;48.174;11.566;2023-06-04T06:13:51;5.18;;;3.85;;
25419;SDS011;13354;48.174;11.566;2023-06-04T06:16:17;9.48;;;4.00;;
25419;SDS011;13354;48.174;11.566;2023-06-04T06:18:43;6.55;;;3.63;;
25419;SDS011;13354;48.174;11.566;2023-06-04T06:21:08;5.93;;;3.80;;
25419;SDS011;13354;48.174;11.566;2023-06-04T06:23:34;6.45;;;3.75;;
25419;SDS011;13354;48.174;11.566;2023-06-04T06:25:59;6.55;;;3.38;;
25419;SDS011;13354;48.174;11.566;2023-06-04T06:28:26;9.65;;;3.50;;
25419;SDS011;13354;48.174;11.566;2023-06-04T06:30:52;6.13;;;3.15;;
25419;SDS011;13354;48.174;11.566;2023-06-04T06:33:17;8.20;;;3.53;;
25419;SDS011;13354;48.174;11.566;2023-06-04T06:35:46;6.45;;;3.72;;
25419;SDS011;13354;48.174;11.566;2023-06-04T06:38:12;6.32;;;3.72;;
25419;SDS011;13354;48.174;11.566;2023-06-04T06:40:38;11.13;;;4.63;;
25419;SDS011;13354;48.174;11.566;2023-06-04T06:43:03;9.32;;;4.30;;
25419;SDS011;13354;48.174;11.566;2023-06-04T06:45:28;5.50;;;4.43;;
25419;SDS011;13354;48.174;11.566;2023-06-04T06:47:54;10.77;;;4.35;;
25419;SDS011;13354;48.174;11.566;2023-06-04T06:50:19;6.53;;;4.38;;
25419;SDS011;13354;48.174;11.566;2023-06-04T06:52:44;8.23;;;4.82;;
25419;SDS011;13354;48.174;11.566;2023-06-04T06:55:10;8.38;;;6.65;;
25419;SDS011;13354;48.174;11.566;2023-06-04T06:57:35;7.88;;;5.55;;
25419;SDS011;13354;48.174;11.566;2023-06-04T07:00:00;8.57;;;5.25;;
25419;SDS011;13354;48.174;11.566;2023-06-04T07:02:26;7.07;;;4.63;;
25419;SDS011;13354;48.174;11.566;2023-06-04T07:04:51;9.30;;;4.72;;
25419;SDS011;13354;48.174;11.566;2023-06-04T07:07:16;8.43;;;4.28;;
25419;SDS011;13354;48.174;11.566;2023-06-04T07:09:42;6.45;;;4.13;;
25419;SDS011;13354;48.174;11.566;2023-06-04T07:12:07;8.05;;;4.35;;
25419;SDS011;13354;48.174;11.566;2023-06-04T07:14:32;7.75;;;4.40;;
25419;SDS011;13354;48.174;11.566;2023-06-04T07:16:58;5.30;;;3.83;;
25419;SDS011;13354;48.174;11.566;2023-06-04T07:19:23;8.30;;;4.88;;
25419;SDS011;13354;48.174;11.566;2023-06-04T07:21:49;10.60;;;5.07;;
25419;SDS011;13354;48.174;11.566;2023-06-04T07:24:15;7.72;;;4.50;;
25419;SDS011;13354;48.174;11.566;2023-06-04T07:26:41;7.35;;;4.30;;
25419;SDS011;13354;48.174;11.566;2023-06-04T07:29:06;7.00;;;3.45;;
25419;SDS011;13354;48.174;11.566;2023-06-04T07:31:32;5.50;;;3.20;;
25419;SDS011;13354;48.174;11.566;2023-06-04T07:33:57;6.00;;;3.47;;
25419;SDS011;13354;48.174;11.566;2023-06-04T07:36:22;4.77;;;4.20;;
25419;SDS011;13354;48.174;11.566;2023-06-04T07:38:48;6.57;;;3.70;;
25419;SDS011;13354;48.174;11.566;2023-06-04T07:41:13;9.65;;;3.58;;
25419;SDS011;13354;48.174;11.566;2023-06-04T07:43:39;7.68;;;3.65;;
25419;SDS011;13354;48.174;11.566;2023-06-04T07:46:05;6.20;;;3.50;;
25419;SDS011;13354;48.174;11.566;2023-06-04T07:48:30;7.07;;;4.28;;
25419;SDS011;13354;48.174;11.566;2023-06-04T07:50:57;5.20;;;3.20;;
25419;SDS011;13354;48.174;11.566;2023-06-04T07:53:23;4.93;;;3.17;;
25419;SDS011;13354;48.174;11.566;2023-06-04T07:55:49;4.63;;;2.72;;
25419;SDS011;13354;48.174;11.566;2023-06-04T07:58:14;7.25;;;2.70;;
25419;SDS011;13354;48.174;11.566;2023-06-04T08:00:40;5.00;;;2.95;;
25419;SDS011;13354;48.174;11.566;2023-06-04T08:03:05;7.57;;;2.70;;
25419;SDS011;13354;48.174;11.566;2023-06-04T08:05:31;5.03;;;2.90;;
25419;SDS011;13354;48.174;11.566;2023-06-04T08:07:56;4.47;;;2.90;;
25419;SDS011;13354;48.174;11.566;2023-06-04T08:10:22;5.57;;;2.90;;
25419;SDS011;13354;48.174;11.566;2023-06-04T08:12:47;7.00;;;2.83;;
25419;SDS011;13354;48.174;11.566;2023-06-04T08:15:12;7.73;;;2.90;;
25419;SDS011;13354;48.174;11.566;2023-06-04T08:17:38;6.78;;;2.88;;
25419;SDS011;13354;48.174;11.566;2023-06-04T08:20:03;4.25;;;2.45;;
25419;SDS011;13354;48.174;11.566;2023-06-04T08:22:34;5.82;;;3.08;;
25419;SDS011;13354;48.174;11.566;2023-06-04T08:24:59;5.10;;;2.78;;
25419;SDS011;13354;48.174;11.566;2023-06-04T08:27:24;5.00;;;2.55;;
25419;SDS011;13354;48.174;11.566;2023-06-04T08:29:50;6.38;;;2.72;;
25419;SDS011;13354;48.174;11.566;2023-06-04T08:32:17;5.20;;;2.60;;
25419;SDS011;13354;48.174;11.566;2023-06-04T08:34:42;4.82;;;2.78;;
25419;SDS011;13354;48.174;11.566;2023-06-04T08:37:08;6.43;;;2.60;;
25419;SDS011;13354;48.174;11.566;2023-06-04T08:39:33;5.45;;;2.80;;
25419;SDS011;13354;48.174;11.566;2023-06-04T08:42:03;5.07;;;3.08;;
25419;SDS011;13354;48.174;11.566;2023-06-04T08:44:34;8.85;;;3.47;;
25419;SDS011;13354;48.174;11.566;2023-06-04T08:47:03;4.40;;;2.65;;
25419;SDS011;13354;48.174;11.566;2023-06-04T08:49:34;5.75;;;2.97;;
25419;SDS011;13354;48.174;11.566;2023-06-04T08:52:04;9.02;;;2.97;;
25419;SDS011;13354;48.174;11.566;2023-06-04T08:54:30;5.38;;;2.55;;
25419;SDS011;13354;48.174;11.566;2023-06-04T08:56:57;4.45;;;2.72;;
25419;SDS011;13354;48.174;11.566;2023-06-04T08:59:25;6.72;;;3.05;;
25419;SDS011;13354;48.174;11.566;2023-06-04T09:01:55;6.72;;;3.10;;
25419;SDS011;13354;48.174;11.566;2023-06-04T09:04:22;7.47;;;2.88;;
25419;SDS011;13354;48.174;11.566;2023-06-04T09:06:48;5.50;;;2.80;;
25419;SDS011;13354;48.174;11.566;2023-06-04T09:09:14;6.85;;;3.15;;
25419;SDS011;13354;48.174;11.566;2023-06-04T09:11:54;5.97;;;2.97;;
25419;SDS011;13354;48.174;11.566;2023-06-04T09:14:21;7.72;;;2.60;;
25419;SDS011;13354;48.174;11.566;2023-06-04T09:16:48;6.38;;;2.80;;
25419;SDS011;13354;48.174;11.566;2023-06-04T09:19:15;5.25;;;2.83;;
25419;SDS011;13354;48.174;11.566;2023-06-04T09:24:14;6.32;;;2.75;;
25419;SDS011;13354;48.174;11.566;2023-06-04T09:26:39;3.78;;;2.60;;
25419;SDS011;13354;48.174;11.566;2023-06-04T09:29:05;6.25;;;2.55;;
25419;SDS011;13354;48.174;11.566;2023-06-04T09:31:31;4.75;;;2.65;;
25419;SDS011;13354;48.174;11.566;2023-06-04T09:34:02;5.75;;;2.72;;
25419;SDS011;13354;48.174;11.566;2023-06-04T09:36:34;3.78;;;2.50;;
25419;SDS011;13354;48.174;11.566;2023-06-04T09:39:00;5.85;;;2.70;;
25419;SDS011;13354;48.174;11.566;2023-06-04T09:41:40;4.60;;;2.40;;
25419;SDS011;13354;48.174;11.566;2023-06-04T09:44:05;3.72;;;2.30;;
25419;SDS011;13354;48.174;11.566;2023-06-04T09:46:35;5.07;;;2.67;;
25419;SDS011;13354;48.174;11.566;2023-06-04T09:49:01;4.65;;;2.20;;
25419;SDS011;13354;48.174;11.566;2023-06-04T09:51:28;5.43;;;2.28;;
25419;SDS011;13354;48.174;11.566;2023-06-04T09:54:00;6.10;;;2.67;;
25419;SDS011;13354;48.174;11.566;2023-06-04T09:56:27;5.63;;;2.65;;
25419;SDS011;13354;48.174;11.566;2023-06-04T09:58:54;6.03;;;2.80;;
25419;SDS011;13354;48.174;11.566;2023-06-04T10:01:21;5.20;;;2.60;;
25419;SDS011;13354;48.174;11.566;2023-06-04T10:03:49;4.55;;;2.45;;
25419;SDS011;13354;48.174;11.566;2023-06-04T10:06:17;5.38;;;2.70;;
25419;SDS011;13354;48.174;11.566;2023-06-04T10:08:44;4.60;;;2.90;;
25419;SDS011;13354;48.174;11.566;2023-06-04T10:11:11;5.47;;;2.50;;
25419;SDS011;13354;48.174;11.566;2023-06-04T10:13:47;3.70;;;2.30;;
25419;SDS011;13354;48.174;11.566;2023-06-04T10:16:17;6.75;;;2.45;;
25419;SDS011;13354;48.174;11.566;2023-06-04T10:18:45;4.45;;;2.50;;
25419;SDS011;13354;48.174;11.566;2023-06-04T10:21:12;9.32;;;2.75;;
25419;SDS011;13354;48.174;11.566;2023-06-04T10:23:38;7.35;;;2.63;;
25419;SDS011;13354;48.174;11.566;2023-06-04T10:26:04;5.97;;;2.60;;
25419;SDS011;13354;48.174;11.566;2023-06-04T10:28:29;6.93;;;2.38;;
25419;SDS011;13354;48.174;11.566;2023-06-04T10:30:55;4.60;;;2.33;;
25419;SDS011;13354;48.174;11.566;2023-06-04T10:33:20;6.23;;;2.53;;
25419;SDS011;13354;48.174;11.566;2023-06-04T10:35:49;3.95;;;2.47;;
25419;SDS011;13354;48.174;11.566;2023-06-04T10:38:15;5.25;;;2.60;;
25419;SDS011;13354;48.174;11.566;2023-06-04T10:40:46;4.88;;;2.88;;
25419;SDS011;13354;48.174;11.566;2023-06-04T10:43:12;5.13;;;2.55;;
25419;SDS011;13354;48.174;11.566;2023-06-04T10:45:39;7.18;;;2.60;;
25419;SDS011;13354;48.174;11.566;2023-06-04T10:48:06;7.05;;;2.90;;
25419;SDS011;13354;48.174;11.566;2023-06-04T10:50:33;4.82;;;2.88;;
25419;SDS011;13354;48.174;11.566;2023-06-04T10:53:00;8.02;;;2.95;;
25419;SDS011;13354;48.174;11.566;2023-06-04T10:55:30;8.43;;;3.00;;
25419;SDS011;13354;48.174;11.566;2023-06-04T10:57:59;6.13;;;2.70;;
25419;SDS011;13354;48.174;11.566;2023-06-04T11:00:36;6.25;;;3.00;;
25419;SDS011;13354;48.174;11.566;2023-06-04T11:03:02;5.32;;;2.80;;
25419;SDS011;13354;48.174;11.566;2023-06-04T11:05:34;4.40;;;3.28;;
25419;SDS011;13354;48.174;11.566;2023-06-04T11:08:00;4.93;;;3.05;;
25419;SDS011;13354;48.174;11.566;2023-06-04T11:10:30;5.35;;;2.80;;
25419;SDS011;13354;48.174;11.566;2023-06-04T11:13:01;6.90;;;2.72;;
25419;SDS011;13354;48.174;11.566;2023-06-04T11:15:36;7.15;;;2.85;;
25419;SDS011;13354;48.174;11.566;2023-06-04T11:18:06;6.07;;;2.70;;
25419;SDS011;13354;48.174;11.566;2023-06-04T11:20:31;6.17;;;2.83;;
25419;SDS011;13354;48.174;11.566;2023-06-04T11:22:57;4.13;;;2.80;;
25419;SDS011;13354;48.174;11.566;2023-06-04T11:25:28;3.72;;;2.58;;
25419;SDS011;13354;48.174;11.566;2023-06-04T11:27:55;4.07;;;2.70;;
25419;SDS011;13354;48.174;11.566;2023-06-04T11:30:22;5.03;;;2.97;;
25419;SDS011;13354;48.174;11.566;2023-06-04T11:32:48;4.45;;;2.58;;
25419;SDS011;13354;48.174;11.566;2023-06-04T11:35:14;5.05;;;3.10;;
25419;SDS011;13354;48.174;11.566;2023-06-04T11:37:40;2.97;;;2.63;;
25419;SDS011;13354;48.174;11.566;2023-06-04T11:40:19;6.15;;;2.78;;
25419;SDS011;13354;48.174;11.566;2023-06-04T11:42:45;4.10;;;2.67;;
25419;SDS011;13354;48.174;11.566;2023-06-04T11:45:15;4.35;;;2.78;;
25419;SDS011;13354;48.174;11.566;2023-06-04T11:47:49;3.78;;;2.80;;
25419;SDS011;13354;48.174;11.566;2023-06-04T11:50:16;6.65;;;3.10;;
25419;SDS011;13354;48.174;11.566;2023-06-04T11:52:42;5.68;;;2.53;;
25419;SDS011;13354;48.174;11.566;2023-06-04T11:55:08;3.72;;;2.72;;
25419;SDS011;13354;48.174;11.566;2023-06-04T11:57:37;7.03;;;2.75;;
25419;SDS011;13354;48.174;11.566;2023-06-04T12:00:04;6.57;;;2.65;;
25419;SDS011;13354;48.174;11.566;2023-06-04T12:02:34;5.07;;;2.90;;
25419;SDS011;13354;48.174;11.566;2023-06-04T12:05:10;5.30;;;2.97;;
25419;SDS011;13354;48.174;11.566;2023-06-04T12:07:36;5.35;;;3.10;;
25419;SDS011;13354;48.174;11.566;2023-06-04T12:10:05;3.95;;;2.88;;
25419;SDS011;13354;48.174;11.566;2023-06-04T12:12:34;6.15;;;2.67;;
25419;SDS011;13354;48.174;11.566;2023-06-04T12:15:00;5.38;;;2.88;;
25419;SDS011;13354;48.174;11.566;2023-06-04T12:17:26;4.18;;;2.92;;
25419;SDS011;13354;48.174;11.566;2023-06-04T12:19:51;4.45;;;2.55;;
25419;SDS011;13354;48.174;11.566;2023-06-04T12:22:17;4.45;;;3.20;;
25419;SDS011;13354;48.174;11.566;2023-06-04T12:24:47;5.47;;;3.00;;
25419;SDS011;13354;48.174;11.566;2023-06-04T12:27:13;3.65;;;2.80;;
25419;SDS011;13354;48.174;11.566;2023-06-04T12:29:40;5.78;;;2.85;;
25419;SDS011;13354;48.174;11.566;2023-06-04T12:32:06;5.43;;;2.85;;
25419;SDS011;13354;48.174;11.566;2023-06-04T12:34:38;3.33;;;2.60;;
25419;SDS011;13354;48.174;11.566;2023-06-04T12:37:05;3.17;;;2.78;;
25419;SDS011;13354;48.174;11.566;2023-06-04T12:39:32;4.60;;;2.90;;
25419;SDS011;13354;48.174;11.566;2023-06-04T12:41:58;4.88;;;2.90;;
25419;SDS011;13354;48.174;11.566;2023-06-04T12:44:23;21.17;;;4.00;;
25419;SDS011;13354;48.174;11.566;2023-06-04T12:46:48;14.10;;;3.65;;
25419;SDS011;13354;48.174;11.566;2023-06-04T12:49:15;8.10;;;3.33;;
25419;SDS011;13354;48.174;11.566;2023-06-04T12:51:40;7.00;;;2.90;;
25419;SDS011;13354;48.174;11.566;2023-06-04T12:54:05;3.87;;;2.97;;
25419;SDS011;13354;48.174;11.566;2023-06-04T12:56:31;4.07;;;2.70;;
25419;SDS011;13354;48.174;11.566;2023-06-04T12:58:56;5.60;;;2.88;;
25419;SDS011;13354;48.174;11.566;2023-06-04T13:01:22;7.03;;;2.80;;
25419;SDS011;13354;48.174;11.566;2023-06-04T13:03:47;5.13;;;3.08;;
25419;SDS011;13354;48.174;11.566;2023-06-04T13:06:13;6.93;;;3.20;;
25419;SDS011;13354;48.174;11.566;2023-06-04T13:08:38;14.77;;;3.28;;
25419;SDS011;13354;48.174;11.566;2023-06-04T13:11:03;7.28;;;3.10;;
25419;SDS011;13354;48.174;11.566;2023-06-04T13:13:30;7.43;;;3.45;;
25419;SDS011;13354;48.174;11.566;2023-06-04T13:15:55;5.32;;;3.20;;
25419;SDS011;13354;48.174;11.566;2023-06-04T13:18:21;4.00;;;2.92;;
25419;SDS011;13354;48.174;11.566;2023-06-04T13:20:46;4.00;;;2.83;;
25419;SDS011;13354;48.174;11.566;2023-06-04T13:23:13;9.60;;;3.25;;
25419;SDS011;13354;48.174;11.566;2023-06-04T13:25:39;3.38;;;2.90;;
25419;SDS011;13354;48.174;11.566;2023-06-04T13:28:05;4.70;;;3.08;;
25419;SDS011;13354;48.174;11.566;2023-06-04T13:30:30;5.60;;;3.08;;
25419;SDS011;13354;48.174;11.566;2023-06-04T13:32:55;6.68;;;3.17;;
25419;SDS011;13354;48.174;11.566;2023-06-04T13:35:23;7.40;;;3.45;;
25419;SDS011;13354;48.174;11.566;2023-06-04T13:37:48;7.18;;;3.05;;
25419;SDS011;13354;48.174;11.566;2023-06-04T13:40:14;3.90;;;2.77;;
25419;SDS011;13354;48.174;11.566;2023-06-04T13:42:40;6.53;;;3.10;;
25419;SDS011;13354;48.174;11.566;2023-06-04T13:45:07;5.18;;;2.80;;
25419;SDS011;13354;48.174;11.566;2023-06-04T13:47:33;4.00;;;2.97;;
25419;SDS011;13354;48.174;11.566;2023-06-04T13:49:59;5.15;;;3.20;;
25419;SDS011;13354;48.174;11.566;2023-06-04T13:52:24;9.77;;;3.17;;
25419;SDS011;13354;48.174;11.566;2023-06-04T13:54:49;7.37;;;3.27;;
25419;SDS011;13354;48.174;11.566;2023-06-04T13:57:16;4.85;;;3.22;;
25419;SDS011;13354;48.174;11.566;2023-06-04T13:59:41;5.32;;;3.10;;
25419;SDS011;13354;48.174;11.566;2023-06-04T14:02:07;6.50;;;2.78;;
25419;SDS011;13354;48.174;11.566;2023-06-04T14:04:32;6.63;;;3.00;;
25419;SDS011;13354;48.174;11.566;2023-06-04T14:06:58;6.25;;;3.50;;
25419;SDS011;13354;48.174;11.566;2023-06-04T14:09:24;5.70;;;2.85;;
25419;SDS011;13354;48.174;11.566;2023-06-04T14:11:49;7.10;;;3.30;;
25419;SDS011;13354;48.174;11.566;2023-06-04T14:14:19;5.65;;;3.17;;
25419;SDS011;13354;48.174;11.566;2023-06-04T14:16:46;7.30;;;2.97;;
25419;SDS011;13354;48.174;11.566;2023-06-04T14:19:12;6.05;;;3.00;;
25419;SDS011;13354;48.174;11.566;2023-06-04T14:21:37;5.15;;;3.25;;
25419;SDS011;13354;48.174;11.566;2023-06-04T14:24:03;4.80;;;3.05;;
25419;SDS011;13354;48.174;11.566;2023-06-04T14:26:28;6.45;;;2.92;;
25419;SDS011;13354;48.174;11.566;2023-06-04T14:28:54;3.75;;;2.90;;
25419;SDS011;13354;48.174;11.566;2023-06-04T14:31:20;5.95;;;2.85;;
25419;SDS011;13354;48.174;11.566;2023-06-04T14:33:45;6.55;;;3.10;;